sensor_id;sensor_type;location;lat;lon;timestamp;P1;durP1;ratioP1;P2;durP2;ratioP2
2656;SDS011;1338;48.176;11.792;2023-03-23T00:01:26;4.40;;;4.00;;
2656;SDS011;1338;48.176;11.792;2023-03-23T00:03:57;4.40;;;4.10;;
2656;SDS011;1338;48.176;11.792;2023-03-23T00:06:27;5.00;;;4.50;;
2656;SDS011;1338;48.176;11.792;2023-03-23T00:09:00;4.97;;;4.57;;
2656;SDS011;1338;48.176;11.792;2023-03-23T00:11:29;6.80;;;4.10;;
2656;SDS011;1338;48.176;11.792;2023-03-23T00:13:57;4.67;;;4.27;;
2656;SDS011;1338;48.176;11.792;2023-03-23T00:16:26;4.60;;;4.20;;
2656;SDS011;1338;48.176;11.792;2023-03-23T00:18:56;4.67;;;4.27;;
2656;SDS011;1338;48.176;11.792;2023-03-23T00:21:25;5.00;;;4.53;;
2656;SDS011;1338;48.176;11.792;2023-03-23T00:24:03;4.43;;;4.03;;
2656;SDS011;1338;48.176;11.792;2023-03-23T00:26:32;5.00;;;4.17;;
2656;SDS011;1338;48.176;11.792;2023-03-23T00:29:00;4.90;;;4.50;;
2656;SDS011;1338;48.176;11.792;2023-03-23T00:31:29;4.87;;;4.47;;
2656;SDS011;1338;48.176;11.792;2023-03-23T00:33:57;4.20;;;3.80;;
2656;SDS011;1338;48.176;11.792;2023-03-23T00:36:27;5.60;;;4.03;;
2656;SDS011;1338;48.176;11.792;2023-03-23T00:38:55;4.73;;;4.20;;
2656;SDS011;1338;48.176;11.792;2023-03-23T00:41:25;4.70;;;4.30;;
2656;SDS011;1338;48.176;11.792;2023-03-23T00:43:53;4.53;;;4.23;;
2656;SDS011;1338;48.176;11.792;2023-03-23T00:46:21;4.93;;;4.47;;
2656;SDS011;1338;48.176;11.792;2023-03-23T00:48:49;6.23;;;4.30;;
2656;SDS011;1338;48.176;11.792;2023-03-23T00:51:17;4.67;;;4.27;;
2656;SDS011;1338;48.176;11.792;2023-03-23T00:53:45;4.23;;;3.83;;
2656;SDS011;1338;48.176;11.792;2023-03-23T00:56:13;5.23;;;4.73;;
2656;SDS011;1338;48.176;11.792;2023-03-23T00:58:40;5.07;;;4.40;;
2656;SDS011;1338;48.176;11.792;2023-03-23T01:01:08;4.63;;;4.23;;
2656;SDS011;1338;48.176;11.792;2023-03-23T01:03:35;4.40;;;4.10;;
2656;SDS011;1338;48.176;11.792;2023-03-23T01:06:06;5.80;;;4.50;;
2656;SDS011;1338;48.176;11.792;2023-03-23T01:08:38;5.37;;;4.30;;
2656;SDS011;1338;48.176;11.792;2023-03-23T01:11:13;4.83;;;4.27;;
2656;SDS011;1338;48.176;11.792;2023-03-23T01:13:41;4.90;;;4.50;;
2656;SDS011;1338;48.176;11.792;2023-03-23T01:16:09;4.47;;;4.07;;
2656;SDS011;1338;48.176;11.792;2023-03-23T01:18:37;4.73;;;3.83;;
2656;SDS011;1338;48.176;11.792;2023-03-23T01:21:06;4.70;;;4.20;;
2656;SDS011;1338;48.176;11.792;2023-03-23T01:23:35;4.37;;;3.97;;
2656;SDS011;1338;48.176;11.792;2023-03-23T01:26:03;4.63;;;4.30;;
2656;SDS011;1338;48.176;11.792;2023-03-23T01:28:32;4.10;;;3.73;;
2656;SDS011;1338;48.176;11.792;2023-03-23T01:31:00;3.90;;;3.60;;
2656;SDS011;1338;48.176;11.792;2023-03-23T01:33:28;4.30;;;3.90;;
2656;SDS011;1338;48.176;11.792;2023-03-23T01:35:56;4.10;;;3.70;;
2656;SDS011;1338;48.176;11.792;2023-03-23T01:38:23;4.00;;;3.70;;
2656;SDS011;1338;48.176;11.792;2023-03-23T01:40:53;4.67;;;4.33;;
2656;SDS011;1338;48.176;11.792;2023-03-23T01:43:21;4.23;;;3.90;;
2656;SDS011;1338;48.176;11.792;2023-03-23T01:45:50;4.50;;;3.90;;
2656;SDS011;1338;48.176;11.792;2023-03-23T01:48:17;5.33;;;3.80;;
2656;SDS011;1338;48.176;11.792;2023-03-23T01:50:50;3.80;;;3.50;;
2656;SDS011;1338;48.176;11.792;2023-03-23T01:53:21;4.70;;;3.97;;
2656;SDS011;1338;48.176;11.792;2023-03-23T01:55:50;5.00;;;4.57;;
2656;SDS011;1338;48.176;11.792;2023-03-23T01:58:21;4.67;;;4.07;;
2656;SDS011;1338;48.176;11.792;2023-03-23T02:00:54;5.30;;;4.70;;
2656;SDS011;1338;48.176;11.792;2023-03-23T02:03:27;3.30;;;3.10;;
2656;SDS011;1338;48.176;11.792;2023-03-23T02:05:56;4.67;;;4.27;;
2656;SDS011;1338;48.176;11.792;2023-03-23T02:08:47;3.83;;;3.47;;
2656;SDS011;1338;48.176;11.792;2023-03-23T02:11:18;4.33;;;3.93;;
2656;SDS011;1338;48.176;11.792;2023-03-23T02:13:46;5.10;;;4.60;;
2656;SDS011;1338;48.176;11.792;2023-03-23T02:16:18;4.87;;;4.47;;
2656;SDS011;1338;48.176;11.792;2023-03-23T02:19:02;4.50;;;4.10;;
2656;SDS011;1338;48.176;11.792;2023-03-23T02:21:56;4.57;;;4.17;;
2656;SDS011;1338;48.176;11.792;2023-03-23T02:24:53;3.80;;;3.50;;
2656;SDS011;1338;48.176;11.792;2023-03-23T02:27:40;5.27;;;4.47;;
2656;SDS011;1338;48.176;11.792;2023-03-23T02:30:25;4.67;;;4.27;;
2656;SDS011;1338;48.176;11.792;2023-03-23T02:33:17;4.60;;;4.07;;
2656;SDS011;1338;48.176;11.792;2023-03-23T02:35:56;4.43;;;4.03;;
2656;SDS011;1338;48.176;11.792;2023-03-23T02:38:28;4.33;;;4.03;;
2656;SDS011;1338;48.176;11.792;2023-03-23T02:40:59;4.40;;;4.10;;
2656;SDS011;1338;48.176;11.792;2023-03-23T02:43:30;5.70;;;4.10;;
2656;SDS011;1338;48.176;11.792;2023-03-23T02:46:02;4.07;;;3.77;;
2656;SDS011;1338;48.176;11.792;2023-03-23T02:48:35;5.20;;;4.70;;
2656;SDS011;1338;48.176;11.792;2023-03-23T02:51:05;4.73;;;4.33;;
2656;SDS011;1338;48.176;11.792;2023-03-23T02:53:34;4.53;;;4.20;;
2656;SDS011;1338;48.176;11.792;2023-03-23T02:56:03;4.50;;;3.80;;
2656;SDS011;1338;48.176;11.792;2023-03-23T02:58:34;4.57;;;4.17;;
2656;SDS011;1338;48.176;11.792;2023-03-23T03:01:12;4.50;;;4.10;;
2656;SDS011;1338;48.176;11.792;2023-03-23T03:04:05;4.90;;;4.40;;
2656;SDS011;1338;48.176;11.792;2023-03-23T03:06:40;4.50;;;4.10;;
2656;SDS011;1338;48.176;11.792;2023-03-23T03:09:14;7.10;;;4.00;;
2656;SDS011;1338;48.176;11.792;2023-03-23T03:11:49;5.30;;;4.53;;
2656;SDS011;1338;48.176;11.792;2023-03-23T03:14:22;4.20;;;3.90;;
2656;SDS011;1338;48.176;11.792;2023-03-23T03:16:56;3.80;;;3.50;;
2656;SDS011;1338;48.176;11.792;2023-03-23T03:19:31;4.60;;;4.20;;
2656;SDS011;1338;48.176;11.792;2023-03-23T03:22:02;4.60;;;4.20;;
2656;SDS011;1338;48.176;11.792;2023-03-23T03:24:37;4.87;;;4.47;;
2656;SDS011;1338;48.176;11.792;2023-03-23T03:27:10;4.87;;;4.47;;
2656;SDS011;1338;48.176;11.792;2023-03-23T03:30:06;6.70;;;4.43;;
2656;SDS011;1338;48.176;11.792;2023-03-23T03:32:41;4.23;;;3.83;;
2656;SDS011;1338;48.176;11.792;2023-03-23T03:35:16;4.30;;;3.90;;
2656;SDS011;1338;48.176;11.792;2023-03-23T03:37:43;3.83;;;3.43;;
2656;SDS011;1338;48.176;11.792;2023-03-23T03:40:12;8.70;;;5.13;;
2656;SDS011;1338;48.176;11.792;2023-03-23T03:42:42;4.20;;;3.80;;
2656;SDS011;1338;48.176;11.792;2023-03-23T03:45:11;4.67;;;4.27;;
2656;SDS011;1338;48.176;11.792;2023-03-23T03:47:40;4.20;;;3.90;;
2656;SDS011;1338;48.176;11.792;2023-03-23T03:50:07;5.40;;;3.97;;
2656;SDS011;1338;48.176;11.792;2023-03-23T03:52:36;4.73;;;4.20;;
2656;SDS011;1338;48.176;11.792;2023-03-23T03:55:06;3.60;;;3.40;;
2656;SDS011;1338;48.176;11.792;2023-03-23T03:57:36;8.50;;;4.37;;
2656;SDS011;1338;48.176;11.792;2023-03-23T04:00:04;4.30;;;4.00;;
2656;SDS011;1338;48.176;11.792;2023-03-23T04:02:39;4.73;;;4.33;;
2656;SDS011;1338;48.176;11.792;2023-03-23T04:05:08;4.67;;;4.27;;
2656;SDS011;1338;48.176;11.792;2023-03-23T04:07:39;4.63;;;4.23;;
2656;SDS011;1338;48.176;11.792;2023-03-23T04:10:08;4.13;;;3.73;;
2656;SDS011;1338;48.176;11.792;2023-03-23T04:12:36;4.00;;;3.70;;
2656;SDS011;1338;48.176;11.792;2023-03-23T04:15:18;5.83;;;4.17;;
2656;SDS011;1338;48.176;11.792;2023-03-23T04:17:46;7.00;;;4.00;;
2656;SDS011;1338;48.176;11.792;2023-03-23T04:20:14;4.80;;;3.90;;
2656;SDS011;1338;48.176;11.792;2023-03-23T04:22:47;7.83;;;4.20;;
2656;SDS011;1338;48.176;11.792;2023-03-23T04:25:16;4.60;;;4.20;;
2656;SDS011;1338;48.176;11.792;2023-03-23T04:27:47;5.27;;;4.63;;
2656;SDS011;1338;48.176;11.792;2023-03-23T04:30:19;4.90;;;4.40;;
2656;SDS011;1338;48.176;11.792;2023-03-23T04:32:59;4.10;;;3.80;;
2656;SDS011;1338;48.176;11.792;2023-03-23T04:35:27;4.83;;;4.30;;
2656;SDS011;1338;48.176;11.792;2023-03-23T04:38:23;4.10;;;3.80;;
2656;SDS011;1338;48.176;11.792;2023-03-23T04:40:57;4.53;;;4.13;;
2656;SDS011;1338;48.176;11.792;2023-03-23T04:43:54;4.40;;;4.10;;
2656;SDS011;1338;48.176;11.792;2023-03-23T04:46:26;5.33;;;4.43;;
2656;SDS011;1338;48.176;11.792;2023-03-23T04:48:59;4.70;;;4.30;;
2656;SDS011;1338;48.176;11.792;2023-03-23T04:51:31;4.33;;;4.03;;
2656;SDS011;1338;48.176;11.792;2023-03-23T04:54:13;4.40;;;4.00;;
2656;SDS011;1338;48.176;11.792;2023-03-23T04:56:46;5.83;;;5.30;;
2656;SDS011;1338;48.176;11.792;2023-03-23T04:59:15;4.40;;;4.00;;
2656;SDS011;1338;48.176;11.792;2023-03-23T05:01:55;6.97;;;4.17;;
2656;SDS011;1338;48.176;11.792;2023-03-23T05:04:23;4.50;;;4.00;;
2656;SDS011;1338;48.176;11.792;2023-03-23T05:06:59;4.30;;;3.83;;
2656;SDS011;1338;48.176;11.792;2023-03-23T05:09:31;4.50;;;4.10;;
2656;SDS011;1338;48.176;11.792;2023-03-23T05:12:02;3.83;;;3.53;;
2656;SDS011;1338;48.176;11.792;2023-03-23T05:14:31;4.00;;;3.70;;
2656;SDS011;1338;48.176;11.792;2023-03-23T05:17:04;5.10;;;4.33;;
2656;SDS011;1338;48.176;11.792;2023-03-23T05:19:32;3.93;;;3.60;;
2656;SDS011;1338;48.176;11.792;2023-03-23T05:22:07;3.93;;;3.63;;
2656;SDS011;1338;48.176;11.792;2023-03-23T05:24:45;5.37;;;4.20;;
2656;SDS011;1338;48.176;11.792;2023-03-23T05:27:12;7.20;;;4.20;;
2656;SDS011;1338;48.176;11.792;2023-03-23T05:29:44;4.10;;;3.70;;
2656;SDS011;1338;48.176;11.792;2023-03-23T05:32:14;4.33;;;3.70;;
2656;SDS011;1338;48.176;11.792;2023-03-23T05:34:41;3.90;;;3.60;;
2656;SDS011;1338;48.176;11.792;2023-03-23T05:37:09;5.70;;;3.60;;
2656;SDS011;1338;48.176;11.792;2023-03-23T05:39:59;6.27;;;4.17;;
2656;SDS011;1338;48.176;11.792;2023-03-23T05:42:39;4.63;;;4.23;;
2656;SDS011;1338;48.176;11.792;2023-03-23T05:45:15;3.70;;;3.40;;
2656;SDS011;1338;48.176;11.792;2023-03-23T05:47:43;6.47;;;4.47;;
2656;SDS011;1338;48.176;11.792;2023-03-23T05:50:17;6.50;;;4.40;;
2656;SDS011;1338;48.176;11.792;2023-03-23T05:52:44;4.33;;;3.93;;
2656;SDS011;1338;48.176;11.792;2023-03-23T05:55:15;4.77;;;3.80;;
2656;SDS011;1338;48.176;11.792;2023-03-23T05:57:48;4.50;;;4.10;;
2656;SDS011;1338;48.176;11.792;2023-03-23T06:00:26;5.60;;;3.90;;
2656;SDS011;1338;48.176;11.792;2023-03-23T06:03:06;5.00;;;3.50;;
2656;SDS011;1338;48.176;11.792;2023-03-23T06:05:49;4.43;;;4.13;;
2656;SDS011;1338;48.176;11.792;2023-03-23T06:11:14;4.60;;;3.33;;
2656;SDS011;1338;48.176;11.792;2023-03-23T06:13:52;4.17;;;3.67;;
2656;SDS011;1338;48.176;11.792;2023-03-23T06:16:19;4.20;;;3.80;;
2656;SDS011;1338;48.176;11.792;2023-03-23T06:18:52;4.40;;;3.93;;
2656;SDS011;1338;48.176;11.792;2023-03-23T06:21:27;4.10;;;3.80;;
2656;SDS011;1338;48.176;11.792;2023-03-23T06:23:59;4.97;;;4.20;;
2656;SDS011;1338;48.176;11.792;2023-03-23T06:26:32;5.60;;;4.23;;
2656;SDS011;1338;48.176;11.792;2023-03-23T06:29:05;4.20;;;3.80;;
2656;SDS011;1338;48.176;11.792;2023-03-23T06:31:39;4.60;;;3.97;;
2656;SDS011;1338;48.176;11.792;2023-03-23T06:34:08;4.03;;;3.63;;
2656;SDS011;1338;48.176;11.792;2023-03-23T06:36:59;4.37;;;3.30;;
2656;SDS011;1338;48.176;11.792;2023-03-23T06:39:33;4.40;;;3.53;;
2656;SDS011;1338;48.176;11.792;2023-03-23T06:42:25;3.87;;;3.40;;
2656;SDS011;1338;48.176;11.792;2023-03-23T06:45:12;4.67;;;4.27;;
2656;SDS011;1338;48.176;11.792;2023-03-23T06:47:40;3.47;;;3.17;;
2656;SDS011;1338;48.176;11.792;2023-03-23T06:50:09;4.50;;;3.70;;
2656;SDS011;1338;48.176;11.792;2023-03-23T06:52:38;3.93;;;3.60;;
2656;SDS011;1338;48.176;11.792;2023-03-23T06:55:05;4.00;;;3.60;;
2656;SDS011;1338;48.176;11.792;2023-03-23T06:57:34;3.77;;;3.47;;
2656;SDS011;1338;48.176;11.792;2023-03-23T07:00:02;4.33;;;3.90;;
2656;SDS011;1338;48.176;11.792;2023-03-23T07:02:40;3.87;;;3.57;;
2656;SDS011;1338;48.176;11.792;2023-03-23T07:05:08;3.70;;;3.40;;
2656;SDS011;1338;48.176;11.792;2023-03-23T07:07:36;3.90;;;3.50;;
2656;SDS011;1338;48.176;11.792;2023-03-23T07:10:26;3.70;;;3.40;;
2656;SDS011;1338;48.176;11.792;2023-03-23T07:12:55;4.50;;;3.90;;
2656;SDS011;1338;48.176;11.792;2023-03-23T07:15:24;3.70;;;3.40;;
2656;SDS011;1338;48.176;11.792;2023-03-23T07:17:53;4.10;;;3.63;;
2656;SDS011;1338;48.176;11.792;2023-03-23T07:20:35;4.00;;;3.70;;
2656;SDS011;1338;48.176;11.792;2023-03-23T07:23:03;4.10;;;3.73;;
2656;SDS011;1338;48.176;11.792;2023-03-23T07:25:44;4.87;;;3.33;;
2656;SDS011;1338;48.176;11.792;2023-03-23T07:28:18;4.07;;;3.67;;
2656;SDS011;1338;48.176;11.792;2023-03-23T07:30:46;3.47;;;2.87;;
2656;SDS011;1338;48.176;11.792;2023-03-23T07:33:13;5.07;;;3.93;;
2656;SDS011;1338;48.176;11.792;2023-03-23T07:35:40;3.90;;;3.50;;
2656;SDS011;1338;48.176;11.792;2023-03-23T07:38:12;5.57;;;3.70;;
2656;SDS011;1338;48.176;11.792;2023-03-23T07:40:42;5.53;;;3.70;;
2656;SDS011;1338;48.176;11.792;2023-03-23T07:43:13;4.40;;;4.03;;
2656;SDS011;1338;48.176;11.792;2023-03-23T07:46:01;4.17;;;3.73;;
2656;SDS011;1338;48.176;11.792;2023-03-23T07:48:37;5.03;;;3.50;;
2656;SDS011;1338;48.176;11.792;2023-03-23T07:51:04;3.50;;;3.20;;
2656;SDS011;1338;48.176;11.792;2023-03-23T07:53:33;4.97;;;4.47;;
2656;SDS011;1338;48.176;11.792;2023-03-23T07:56:13;5.00;;;3.40;;
2656;SDS011;1338;48.176;11.792;2023-03-23T07:59:05;6.83;;;3.90;;
2656;SDS011;1338;48.176;11.792;2023-03-23T08:01:36;5.17;;;3.40;;
2656;SDS011;1338;48.176;11.792;2023-03-23T08:04:27;3.10;;;2.90;;
2656;SDS011;1338;48.176;11.792;2023-03-23T08:07:20;4.40;;;3.50;;
2656;SDS011;1338;48.176;11.792;2023-03-23T08:09:53;3.57;;;3.27;;
2656;SDS011;1338;48.176;11.792;2023-03-23T08:12:39;3.50;;;3.20;;
2656;SDS011;1338;48.176;11.792;2023-03-23T08:15:36;4.57;;;3.33;;
2656;SDS011;1338;48.176;11.792;2023-03-23T08:18:32;3.77;;;3.47;;
2656;SDS011;1338;48.176;11.792;2023-03-23T08:21:03;3.30;;;3.00;;
2656;SDS011;1338;48.176;11.792;2023-03-23T08:23:40;2.93;;;2.73;;
2656;SDS011;1338;48.176;11.792;2023-03-23T08:26:36;2.87;;;2.67;;
2656;SDS011;1338;48.176;11.792;2023-03-23T08:29:39;3.37;;;3.07;;
2656;SDS011;1338;48.176;11.792;2023-03-23T08:32:41;4.47;;;4.17;;
2656;SDS011;1338;48.176;11.792;2023-03-23T08:35:28;3.80;;;3.40;;
2656;SDS011;1338;48.176;11.792;2023-03-23T08:38:24;3.93;;;3.63;;
2656;SDS011;1338;48.176;11.792;2023-03-23T08:40:56;3.53;;;3.23;;
2656;SDS011;1338;48.176;11.792;2023-03-23T08:43:36;3.43;;;3.20;;
2656;SDS011;1338;48.176;11.792;2023-03-23T08:46:33;3.63;;;3.33;;
2656;SDS011;1338;48.176;11.792;2023-03-23T08:49:17;4.47;;;4.03;;
2656;SDS011;1338;48.176;11.792;2023-03-23T08:52:05;3.80;;;3.50;;
2656;SDS011;1338;48.176;11.792;2023-03-23T08:54:53;4.30;;;4.00;;
2656;SDS011;1338;48.176;11.792;2023-03-23T08:57:42;3.10;;;2.80;;
2656;SDS011;1338;48.176;11.792;2023-03-23T09:00:29;3.60;;;3.30;;
2656;SDS011;1338;48.176;11.792;2023-03-23T09:03:12;5.30;;;3.63;;
2656;SDS011;1338;48.176;11.792;2023-03-23T09:06:01;3.33;;;3.13;;
2656;SDS011;1338;48.176;11.792;2023-03-23T09:08:43;4.80;;;3.20;;
2656;SDS011;1338;48.176;11.792;2023-03-23T09:11:11;5.07;;;3.50;;
2656;SDS011;1338;48.176;11.792;2023-03-23T09:13:38;3.70;;;3.40;;
2656;SDS011;1338;48.176;11.792;2023-03-23T09:16:06;4.67;;;3.90;;
2656;SDS011;1338;48.176;11.792;2023-03-23T09:18:34;4.43;;;3.57;;
2656;SDS011;1338;48.176;11.792;2023-03-23T09:21:02;4.70;;;3.30;;
2656;SDS011;1338;48.176;11.792;2023-03-23T09:23:30;3.73;;;3.43;;
2656;SDS011;1338;48.176;11.792;2023-03-23T09:26:00;3.60;;;3.30;;
2656;SDS011;1338;48.176;11.792;2023-03-23T09:28:28;6.07;;;4.13;;
2656;SDS011;1338;48.176;11.792;2023-03-23T09:30:56;6.70;;;3.70;;
2656;SDS011;1338;48.176;11.792;2023-03-23T09:33:24;10.50;;;4.10;;
2656;SDS011;1338;48.176;11.792;2023-03-23T09:35:52;5.70;;;4.47;;
2656;SDS011;1338;48.176;11.792;2023-03-23T09:38:19;5.23;;;4.57;;
2656;SDS011;1338;48.176;11.792;2023-03-23T09:40:47;4.70;;;3.80;;
2656;SDS011;1338;48.176;11.792;2023-03-23T09:43:32;14.10;;;5.77;;
2656;SDS011;1338;48.176;11.792;2023-03-23T09:46:18;4.33;;;4.03;;
2656;SDS011;1338;48.176;11.792;2023-03-23T09:48:54;4.33;;;3.93;;
2656;SDS011;1338;48.176;11.792;2023-03-23T09:51:26;3.73;;;3.43;;
2656;SDS011;1338;48.176;11.792;2023-03-23T09:54:01;7.20;;;4.13;;
2656;SDS011;1338;48.176;11.792;2023-03-23T09:56:33;5.70;;;3.93;;
2656;SDS011;1338;48.176;11.792;2023-03-23T09:59:05;4.83;;;4.43;;
2656;SDS011;1338;48.176;11.792;2023-03-23T10:01:39;4.40;;;4.00;;
2656;SDS011;1338;48.176;11.792;2023-03-23T10:04:11;3.90;;;3.60;;
2656;SDS011;1338;48.176;11.792;2023-03-23T10:06:45;6.50;;;4.13;;
2656;SDS011;1338;48.176;11.792;2023-03-23T10:09:14;5.30;;;3.90;;
2656;SDS011;1338;48.176;11.792;2023-03-23T10:11:48;5.13;;;4.60;;
2656;SDS011;1338;48.176;11.792;2023-03-23T10:14:29;3.87;;;3.57;;
2656;SDS011;1338;48.176;11.792;2023-03-23T10:17:13;4.37;;;3.97;;
2656;SDS011;1338;48.176;11.792;2023-03-23T10:19:46;4.67;;;4.10;;
2656;SDS011;1338;48.176;11.792;2023-03-23T10:22:16;5.10;;;4.30;;
2656;SDS011;1338;48.176;11.792;2023-03-23T10:24:49;9.57;;;4.47;;
2656;SDS011;1338;48.176;11.792;2023-03-23T10:27:19;4.50;;;4.10;;
2656;SDS011;1338;48.176;11.792;2023-03-23T10:29:55;5.63;;;4.70;;
2656;SDS011;1338;48.176;11.792;2023-03-23T10:32:37;4.40;;;4.07;;
2656;SDS011;1338;48.176;11.792;2023-03-23T10:35:10;5.40;;;4.33;;
2656;SDS011;1338;48.176;11.792;2023-03-23T10:37:41;4.80;;;4.40;;
2656;SDS011;1338;48.176;11.792;2023-03-23T10:40:14;5.50;;;5.00;;
2656;SDS011;1338;48.176;11.792;2023-03-23T10:42:43;4.93;;;4.57;;
2656;SDS011;1338;48.176;11.792;2023-03-23T10:45:14;5.53;;;5.03;;
2656;SDS011;1338;48.176;11.792;2023-03-23T10:47:46;5.20;;;4.70;;
2656;SDS011;1338;48.176;11.792;2023-03-23T10:50:17;4.90;;;4.50;;
2656;SDS011;1338;48.176;11.792;2023-03-23T10:52:49;5.10;;;4.60;;
2656;SDS011;1338;48.176;11.792;2023-03-23T10:55:19;5.70;;;5.00;;
2656;SDS011;1338;48.176;11.792;2023-03-23T10:57:58;5.67;;;5.07;;
2656;SDS011;1338;48.176;11.792;2023-03-23T11:00:29;5.63;;;5.13;;
2656;SDS011;1338;48.176;11.792;2023-03-23T11:02:57;5.20;;;4.70;;
2656;SDS011;1338;48.176;11.792;2023-03-23T11:05:31;6.80;;;4.87;;
2656;SDS011;1338;48.176;11.792;2023-03-23T11:08:01;4.87;;;4.30;;
2656;SDS011;1338;48.176;11.792;2023-03-23T11:10:34;5.43;;;4.83;;
2656;SDS011;1338;48.176;11.792;2023-03-23T11:13:02;7.53;;;4.77;;
2656;SDS011;1338;48.176;11.792;2023-03-23T11:15:36;4.67;;;4.27;;
2656;SDS011;1338;48.176;11.792;2023-03-23T11:18:05;7.40;;;4.43;;
2656;SDS011;1338;48.176;11.792;2023-03-23T11:20:35;5.63;;;5.17;;
2656;SDS011;1338;48.176;11.792;2023-03-23T11:23:09;4.73;;;4.40;;
2656;SDS011;1338;48.176;11.792;2023-03-23T11:25:55;5.10;;;4.60;;
2656;SDS011;1338;48.176;11.792;2023-03-23T11:28:29;6.40;;;4.67;;
2656;SDS011;1338;48.176;11.792;2023-03-23T11:31:02;4.80;;;4.30;;
2656;SDS011;1338;48.176;11.792;2023-03-23T11:33:35;5.43;;;4.70;;
2656;SDS011;1338;48.176;11.792;2023-03-23T11:36:06;5.50;;;5.00;;
2656;SDS011;1338;48.176;11.792;2023-03-23T11:38:34;5.30;;;4.80;;
2656;SDS011;1338;48.176;11.792;2023-03-23T11:41:08;6.07;;;5.37;;
2656;SDS011;1338;48.176;11.792;2023-03-23T11:43:39;5.13;;;4.63;;
2656;SDS011;1338;48.176;11.792;2023-03-23T11:46:13;5.10;;;4.60;;
2656;SDS011;1338;48.176;11.792;2023-03-23T11:48:51;5.10;;;4.70;;
2656;SDS011;1338;48.176;11.792;2023-03-23T11:51:24;5.00;;;4.50;;
2656;SDS011;1338;48.176;11.792;2023-03-23T11:53:58;4.47;;;4.17;;
2656;SDS011;1338;48.176;11.792;2023-03-23T11:56:29;4.77;;;4.37;;
2656;SDS011;1338;48.176;11.792;2023-03-23T11:58:59;5.70;;;4.63;;
2656;SDS011;1338;48.176;11.792;2023-03-23T12:01:34;5.53;;;5.03;;
2656;SDS011;1338;48.176;11.792;2023-03-23T12:04:19;6.00;;;5.50;;
2656;SDS011;1338;48.176;11.792;2023-03-23T12:07:02;5.60;;;5.10;;
2656;SDS011;1338;48.176;11.792;2023-03-23T12:09:41;6.10;;;5.13;;
2656;SDS011;1338;48.176;11.792;2023-03-23T12:12:16;5.43;;;4.80;;
2656;SDS011;1338;48.176;11.792;2023-03-23T12:14:52;5.97;;;5.43;;
2656;SDS011;1338;48.176;11.792;2023-03-23T12:17:31;6.07;;;5.47;;
2656;SDS011;1338;48.176;11.792;2023-03-23T12:20:10;5.30;;;4.90;;
2656;SDS011;1338;48.176;11.792;2023-03-23T12:22:47;5.70;;;5.30;;
2656;SDS011;1338;48.176;11.792;2023-03-23T12:25:32;5.67;;;5.17;;
2656;SDS011;1338;48.176;11.792;2023-03-23T12:28:21;6.93;;;5.80;;
2656;SDS011;1338;48.176;11.792;2023-03-23T12:30:55;6.37;;;5.60;;
2656;SDS011;1338;48.176;11.792;2023-03-23T12:33:32;5.67;;;5.17;;
2656;SDS011;1338;48.176;11.792;2023-03-23T12:36:15;4.97;;;4.50;;
2656;SDS011;1338;48.176;11.792;2023-03-23T12:38:56;7.33;;;5.43;;
2656;SDS011;1338;48.176;11.792;2023-03-23T12:41:34;7.67;;;5.40;;
2656;SDS011;1338;48.176;11.792;2023-03-23T12:44:08;6.60;;;5.90;;
2656;SDS011;1338;48.176;11.792;2023-03-23T12:46:45;6.60;;;5.53;;
2656;SDS011;1338;48.176;11.792;2023-03-23T12:49:26;6.87;;;5.90;;
2656;SDS011;1338;48.176;11.792;2023-03-23T12:51:59;5.27;;;4.73;;
2656;SDS011;1338;48.176;11.792;2023-03-23T12:54:33;5.87;;;5.23;;
2656;SDS011;1338;48.176;11.792;2023-03-23T12:57:05;5.37;;;4.80;;
2656;SDS011;1338;48.176;11.792;2023-03-23T12:59:38;6.30;;;5.70;;
2656;SDS011;1338;48.176;11.792;2023-03-23T13:02:12;5.50;;;4.90;;
2656;SDS011;1338;48.176;11.792;2023-03-23T13:04:46;5.93;;;5.30;;
2656;SDS011;1338;48.176;11.792;2023-03-23T13:07:18;6.40;;;5.70;;
2656;SDS011;1338;48.176;11.792;2023-03-23T13:09:52;5.47;;;5.00;;
2656;SDS011;1338;48.176;11.792;2023-03-23T13:12:22;7.10;;;5.03;;
2656;SDS011;1338;48.176;11.792;2023-03-23T13:14:53;5.23;;;4.80;;
2656;SDS011;1338;48.176;11.792;2023-03-23T13:17:28;5.20;;;4.70;;
2656;SDS011;1338;48.176;11.792;2023-03-23T13:20:16;5.27;;;4.77;;
2656;SDS011;1338;48.176;11.792;2023-03-23T13:22:54;5.60;;;4.70;;
2656;SDS011;1338;48.176;11.792;2023-03-23T13:25:30;5.67;;;5.17;;
2656;SDS011;1338;48.176;11.792;2023-03-23T13:28:13;4.80;;;4.40;;
2656;SDS011;1338;48.176;11.792;2023-03-23T13:30:59;4.53;;;4.00;;
2656;SDS011;1338;48.176;11.792;2023-03-23T13:33:34;4.17;;;3.60;;
2656;SDS011;1338;48.176;11.792;2023-03-23T13:36:08;5.50;;;3.20;;
2656;SDS011;1338;48.176;11.792;2023-03-23T13:38:36;3.77;;;3.33;;
2656;SDS011;1338;48.176;11.792;2023-03-23T13:41:06;6.33;;;3.67;;
2656;SDS011;1338;48.176;11.792;2023-03-23T13:43:36;6.43;;;4.00;;
2656;SDS011;1338;48.176;11.792;2023-03-23T13:46:09;3.80;;;3.50;;
2656;SDS011;1338;48.176;11.792;2023-03-23T13:48:39;3.43;;;3.23;;
2656;SDS011;1338;48.176;11.792;2023-03-23T13:54:06;5.80;;;4.00;;
2656;SDS011;1338;48.176;11.792;2023-03-23T13:56:41;5.87;;;4.37;;
2656;SDS011;1338;48.176;11.792;2023-03-23T13:59:15;4.17;;;3.77;;
2656;SDS011;1338;48.176;11.792;2023-03-23T14:01:43;5.13;;;4.73;;
2656;SDS011;1338;48.176;11.792;2023-03-23T14:04:12;5.87;;;5.37;;
2656;SDS011;1338;48.176;11.792;2023-03-23T14:06:42;6.60;;;4.37;;
2656;SDS011;1338;48.176;11.792;2023-03-23T14:09:18;5.13;;;4.63;;
2656;SDS011;1338;48.176;11.792;2023-03-23T14:11:51;4.70;;;4.30;;
2656;SDS011;1338;48.176;11.792;2023-03-23T14:14:23;5.47;;;4.00;;
2656;SDS011;1338;48.176;11.792;2023-03-23T14:16:53;4.63;;;4.23;;
2656;SDS011;1338;48.176;11.792;2023-03-23T14:19:33;4.17;;;3.70;;
2656;SDS011;1338;48.176;11.792;2023-03-23T14:22:05;3.90;;;3.60;;
2656;SDS011;1338;48.176;11.792;2023-03-23T14:24:45;8.60;;;4.13;;
2656;SDS011;1338;48.176;11.792;2023-03-23T14:27:13;5.97;;;4.20;;
2656;SDS011;1338;48.176;11.792;2023-03-23T14:29:41;4.43;;;3.70;;
2656;SDS011;1338;48.176;11.792;2023-03-23T14:32:10;4.50;;;4.10;;
2656;SDS011;1338;48.176;11.792;2023-03-23T14:34:40;3.97;;;3.67;;
2656;SDS011;1338;48.176;11.792;2023-03-23T14:37:10;3.90;;;3.60;;
2656;SDS011;1338;48.176;11.792;2023-03-23T14:39:38;4.13;;;3.73;;
2656;SDS011;1338;48.176;11.792;2023-03-23T14:42:07;5.13;;;4.20;;
2656;SDS011;1338;48.176;11.792;2023-03-23T14:44:39;5.17;;;3.93;;
2656;SDS011;1338;48.176;11.792;2023-03-23T14:47:10;3.93;;;3.63;;
2656;SDS011;1338;48.176;11.792;2023-03-23T14:49:42;3.83;;;3.53;;
2656;SDS011;1338;48.176;11.792;2023-03-23T14:52:11;3.83;;;3.53;;
2656;SDS011;1338;48.176;11.792;2023-03-23T14:54:39;4.07;;;3.63;;
2656;SDS011;1338;48.176;11.792;2023-03-23T14:57:12;3.53;;;3.20;;
2656;SDS011;1338;48.176;11.792;2023-03-23T14:59:41;3.70;;;3.33;;
2656;SDS011;1338;48.176;11.792;2023-03-23T15:02:10;3.90;;;3.60;;
2656;SDS011;1338;48.176;11.792;2023-03-23T15:04:41;4.23;;;3.83;;
2656;SDS011;1338;48.176;11.792;2023-03-23T15:07:12;3.30;;;3.00;;
2656;SDS011;1338;48.176;11.792;2023-03-23T15:09:42;3.13;;;2.83;;
2656;SDS011;1338;48.176;11.792;2023-03-23T15:12:19;3.83;;;3.30;;
2656;SDS011;1338;48.176;11.792;2023-03-23T15:14:49;6.10;;;3.57;;
2656;SDS011;1338;48.176;11.792;2023-03-23T15:17:18;3.93;;;3.53;;
2656;SDS011;1338;48.176;11.792;2023-03-23T15:19:47;3.97;;;3.60;;
2656;SDS011;1338;48.176;11.792;2023-03-23T15:22:18;3.90;;;3.50;;
2656;SDS011;1338;48.176;11.792;2023-03-23T15:24:49;4.00;;;3.60;;
2656;SDS011;1338;48.176;11.792;2023-03-23T15:27:23;3.87;;;3.57;;
2656;SDS011;1338;48.176;11.792;2023-03-23T15:29:54;6.33;;;3.63;;
2656;SDS011;1338;48.176;11.792;2023-03-23T15:32:23;3.93;;;3.63;;
2656;SDS011;1338;48.176;11.792;2023-03-23T15:34:52;5.53;;;3.90;;
2656;SDS011;1338;48.176;11.792;2023-03-23T15:37:23;5.33;;;3.80;;
2656;SDS011;1338;48.176;11.792;2023-03-23T15:39:53;5.30;;;3.27;;
2656;SDS011;1338;48.176;11.792;2023-03-23T15:42:22;3.83;;;3.53;;
2656;SDS011;1338;48.176;11.792;2023-03-23T15:44:56;4.50;;;4.07;;
2656;SDS011;1338;48.176;11.792;2023-03-23T15:47:33;5.97;;;3.90;;